Time;durP1;ratioP1;P1;durP2;ratioP2;P2;SDS_P1;SDS_P2;PMS_P1;PMS_P2;Temp;Humidity;BMP_temperature;BMP_pressure;BME280_temperature;BME280_humidity;BME280_pressure;Samples;Min_cycle;Max_cycle;Signal;HPM_P1;HPM_P2
2021/01/08 00:01:46;;;;;;;5.88;3.30;;;3.30;99.90;;;;;;5092591;28;20382;-92
2021/01/08 00:04:12;;;;;;;4.75;3.28;;;3.30;99.90;;;;;;5089182;28;20069;-93
2021/01/08 00:06:38;;;;;;;5.38;3.35;;;3.30;99.90;;;;;;5090902;28;20048;-91
2021/01/08 00:09:04;;;;;;;4.93;2.95;;;3.30;99.90;;;;;;5091406;28;20028;-92
2021/01/08 00:11:34;;;;;;;4.78;3.22;;;3.30;99.90;;;;;;5092661;28;20031;-92
2021/01/08 00:14:00;;;;;;;5.22;3.58;;;3.30;99.90;;;;;;5091217;28;20097;-92
2021/01/08 00:16:26;;;;;;;5.50;3.30;;;3.30;99.90;;;;;;5088363;28;20476;-92
2021/01/08 00:18:51;;;;;;;4.93;3.20;;;3.30;99.90;;;;;;5094956;28;20064;-92
2021/01/08 00:21:17;;;;;;;6.03;3.45;;;3.20;99.90;;;;;;5092389;28;20099;-93
2021/01/08 00:23:42;;;;;;;6.78;3.45;;;3.20;99.90;;;;;;5094925;28;20028;-92
2021/01/08 00:26:08;;;;;;;4.75;3.40;;;3.20;99.90;;;;;;5089493;28;20478;-93
2021/01/08 00:28:33;;;;;;;5.65;3.45;;;3.20;99.90;;;;;;5091870;28;20032;-92
2021/01/08 00:30:59;;;;;;;5.78;3.60;;;3.20;99.90;;;;;;5094442;28;20097;-92
2021/01/08 00:33:24;;;;;;;6.07;3.38;;;3.30;99.90;;;;;;5091844;28;20031;-93
2021/01/08 00:35:50;;;;;;;5.70;3.92;;;3.30;99.90;;;;;;5089593;28;20087;-92
2021/01/08 00:38:15;;;;;;;7.18;3.78;;;3.30;99.90;;;;;;5088895;28;20020;-91
2021/01/08 00:40:41;;;;;;;10.00;4.35;;;3.30;99.90;;;;;;5083088;28;20039;-91
2021/01/08 00:43:06;;;;;;;7.43;4.22;;;3.30;99.90;;;;;;5090682;28;20012;-90
2021/01/08 00:45:32;;;;;;;5.55;3.65;;;3.30;99.90;;;;;;5089236;28;20035;-92
2021/01/08 00:47:58;;;;;;;6.97;4.03;;;3.30;99.90;;;;;;5093335;28;20016;-92
2021/01/08 00:50:24;;;;;;;7.53;4.47;;;3.30;99.90;;;;;;5090783;28;20039;-92
2021/01/08 00:52:49;;;;;;;6.75;4.15;;;3.30;99.90;;;;;;5090042;28;20040;-92
2021/01/08 00:55:15;;;;;;;7.20;3.88;;;3.30;99.90;;;;;;5092742;28;20043;-93
2021/01/08 00:57:40;;;;;;;7.88;4.65;;;3.30;99.90;;;;;;5091070;28;20028;-93
2021/01/08 01:00:07;;;;;;;8.35;4.35;;;3.20;99.90;;;;;;5091264;28;20024;-91
2021/01/08 01:02:33;;;;;;;8.02;4.32;;;3.20;99.90;;;;;;5092685;28;20039;-92
2021/01/08 01:04:59;;;;;;;7.53;4.18;;;3.20;99.90;;;;;;5089245;28;20114;-91
2021/01/08 01:07:24;;;;;;;9.13;4.28;;;3.20;99.90;;;;;;5086784;28;20077;-91
2021/01/08 01:09:50;;;;;;;9.93;4.60;;;3.10;99.90;;;;;;5087115;28;20036;-90
2021/01/08 01:12:16;;;;;;;7.40;4.00;;;3.20;99.90;;;;;;5088280;28;20130;-91
2021/01/08 01:14:41;;;;;;;7.03;3.92;;;3.10;99.90;;;;;;5088997;28;20028;-93
2021/01/08 01:17:07;;;;;;;6.07;3.42;;;3.10;99.90;;;;;;5092680;28;20107;-93
2021/01/08 01:19:32;;;;;;;4.95;3.13;;;3.10;99.90;;;;;;5090170;28;20491;-92
2021/01/08 01:21:58;;;;;;;6.43;3.17;;;3.20;99.90;;;;;;5090467;28;20099;-92
2021/01/08 01:24:24;;;;;;;6.10;3.13;;;3.20;99.90;;;;;;5085572;28;20077;-92
2021/01/08 01:27:00;;;;;;;5.30;2.92;;;3.20;99.90;;;;;;5091266;28;20107;-92
2021/01/08 01:29:26;;;;;;;5.10;2.97;;;3.30;99.90;;;;;;5084603;28;20069;-91
2021/01/08 01:31:52;;;;;;;4.60;2.75;;;3.30;99.90;;;;;;5093239;28;20532;-91
2021/01/08 01:34:18;;;;;;;4.13;2.55;;;3.30;99.90;;;;;;5089840;28;20028;-92
2021/01/08 01:36:45;;;;;;;5.40;2.85;;;3.30;99.90;;;;;;5084094;28;20020;-91
2021/01/08 01:39:12;;;;;;;4.57;2.70;;;3.20;99.90;;;;;;5089727;28;20034;-92
2021/01/08 01:41:38;;;;;;;6.85;3.20;;;3.20;99.90;;;;;;5092223;28;20026;-93
2021/01/08 01:44:04;;;;;;;5.53;2.70;;;3.20;99.90;;;;;;5088014;28;20103;-93
2021/01/08 01:46:30;;;;;;;4.65;2.05;;;3.20;99.90;;;;;;5091460;28;20048;-92
2021/01/08 01:48:55;;;;;;;3.55;1.77;;;3.20;99.90;;;;;;5088605;28;20028;-92
2021/01/08 01:51:21;;;;;;;4.32;2.65;;;3.20;99.90;;;;;;5087468;28;20036;-92
2021/01/08 01:53:51;;;;;;;4.55;2.67;;;3.20;99.90;;;;;;5050029;28;20043;-91
2021/01/08 01:56:17;;;;;;;4.40;2.33;;;3.30;99.90;;;;;;5049827;28;20017;-92
2021/01/08 01:58:42;;;;;;;4.68;2.72;;;3.30;99.90;;;;;;5048445;28;20055;-93
2021/01/08 02:01:10;;;;;;;4.70;2.63;;;3.30;99.90;;;;;;5051031;28;20481;-92
2021/01/08 02:03:45;;;;;;;4.72;2.88;;;3.20;99.90;;;;;;5072321;28;20043;-92
2021/01/08 02:06:15;;;;;;;3.97;2.63;;;3.20;99.90;;;;;;5051426;28;20484;-93
2021/01/08 02:08:45;;;;;;;6.35;3.95;;;3.20;99.90;;;;;;5055137;28;20032;-92
2021/01/08 02:11:14;;;;;;;7.93;3.88;;;3.20;99.90;;;;;;5046252;28;20087;-91
2021/01/08 02:13:41;;;;;;;5.65;3.53;;;3.30;99.90;;;;;;5054784;28;20024;-90
2021/01/08 02:16:08;;;;;;;5.47;3.50;;;3.20;99.90;;;;;;5071989;28;20024;-91
2021/01/08 02:18:37;;;;;;;5.25;3.30;;;3.30;99.90;;;;;;5047029;28;20056;-92
2021/01/08 02:21:07;;;;;;;6.40;3.30;;;3.30;99.90;;;;;;5050062;28;20023;-91
2021/01/08 02:23:40;;;;;;;6.97;4.00;;;3.20;99.90;;;;;;5049886;28;20048;-92
2021/01/08 02:26:07;;;;;;;10.77;3.90;;;3.20;99.90;;;;;;5051336;28;20024;-91
2021/01/08 02:28:33;;;;;;;5.20;3.08;;;3.30;99.90;;;;;;5052051;28;20082;-93
2021/01/08 02:30:58;;;;;;;4.75;3.42;;;3.30;99.90;;;;;;5049358;28;20021;-91
2021/01/08 02:33:24;;;;;;;5.22;3.60;;;3.20;99.90;;;;;;5051498;28;20107;-92
2021/01/08 02:35:50;;;;;;;4.90;2.90;;;3.20;99.90;;;;;;5049224;28;20410;-92
2021/01/08 02:38:20;;;;;;;4.68;2.78;;;3.20;99.90;;;;;;5049378;28;20062;-93
2021/01/08 02:40:49;;;;;;;4.03;2.60;;;3.20;99.90;;;;;;5049146;28;20398;-92
2021/01/08 02:43:22;;;;;;;3.60;2.38;;;3.30;99.90;;;;;;5051024;28;20282;-90
2021/01/08 02:45:48;;;;;;;3.60;2.30;;;3.30;99.90;;;;;;5071329;28;20029;-91
2021/01/08 02:48:14;;;;;;;2.88;1.88;;;3.20;99.90;;;;;;5069777;28;20036;-90
2021/01/08 02:50:39;;;;;;;2.92;2.03;;;3.30;99.90;;;;;;5070763;28;20024;-93
2021/01/08 02:53:09;;;;;;;4.00;2.17;;;3.30;99.90;;;;;;5086563;28;20044;-91
2021/01/08 02:55:36;;;;;;;3.58;2.25;;;3.30;99.90;;;;;;5091020;28;20514;-91
2021/01/08 02:58:03;;;;;;;4.38;2.42;;;3.20;99.90;;;;;;5089589;28;20024;-92
2021/01/08 03:00:30;;;;;;;2.90;1.70;;;3.30;99.90;;;;;;5082668;28;20480;-92
2021/01/08 03:02:58;;;;;;;3.78;2.05;;;3.20;99.90;;;;;;5090745;28;20024;-92
2021/01/08 03:05:27;;;;;;;3.58;2.28;;;3.20;99.90;;;;;;5089651;28;20021;-90
2021/01/08 03:07:53;;;;;;;3.08;1.92;;;3.20;99.90;;;;;;5086465;28;20021;-92
2021/01/08 03:10:18;;;;;;;3.28;1.77;;;3.20;99.90;;;;;;5093296;28;20388;-92
2021/01/08 03:12:54;;;;;;;2.72;1.40;;;3.20;99.90;;;;;;5090287;28;20051;-90
2021/01/08 03:15:20;;;;;;;3.85;1.60;;;3.20;99.90;;;;;;5096068;28;20028;-92
2021/01/08 03:17:45;;;;;;;2.65;1.50;;;3.20;99.90;;;;;;5091037;28;20062;-91
2021/01/08 03:20:12;;;;;;;2.63;1.48;;;3.30;99.90;;;;;;5089354;28;20023;-91
2021/01/08 03:22:37;;;;;;;3.15;1.40;;;3.30;99.90;;;;;;5091165;28;20016;-92
2021/01/08 03:25:03;;;;;;;2.05;1.20;;;3.30;99.90;;;;;;5095232;28;20441;-90
2021/01/08 03:27:28;;;;;;;2.88;1.45;;;3.30;99.90;;;;;;5089217;28;20041;-92
2021/01/08 03:29:54;;;;;;;1.77;1.08;;;3.30;99.90;;;;;;5089268;28;20028;-91
2021/01/08 03:32:19;;;;;;;2.15;1.30;;;3.20;99.90;;;;;;5091849;28;20016;-91
2021/01/08 03:34:45;;;;;;;2.17;1.20;;;3.30;99.90;;;;;;5094382;28;20016;-91
2021/01/08 03:37:10;;;;;;;2.88;1.73;;;3.20;99.90;;;;;;5095692;28;20493;-91
2021/01/08 03:39:36;;;;;;;2.35;1.20;;;3.30;99.90;;;;;;5090882;28;20032;-90
2021/01/08 03:42:01;;;;;;;4.88;2.17;;;3.30;99.90;;;;;;5093653;28;20016;-92
2021/01/08 03:44:27;;;;;;;7.18;3.10;;;3.30;99.90;;;;;;5086860;28;20031;-90
2021/01/08 03:46:52;;;;;;;3.55;2.20;;;3.30;99.90;;;;;;5092853;28;20123;-90
2021/01/08 03:49:18;;;;;;;3.15;1.80;;;3.30;99.90;;;;;;5091445;28;20051;-90
2021/01/08 03:51:43;;;;;;;3.88;1.42;;;3.20;99.90;;;;;;5091522;28;20064;-91
2021/01/08 03:54:09;;;;;;;2.20;1.38;;;3.30;99.90;;;;;;5091279;28;20101;-91
2021/01/08 03:56:35;;;;;;;2.50;1.60;;;3.30;99.90;;;;;;5087664;28;20023;-91
2021/01/08 03:59:00;;;;;;;2.58;1.75;;;3.30;99.90;;;;;;5090471;28;20024;-92
2021/01/08 04:01:26;;;;;;;3.10;1.98;;;3.30;99.90;;;;;;5094298;28;20020;-92
2021/01/08 04:03:51;;;;;;;2.75;1.50;;;3.30;99.90;;;;;;5093001;28;20016;-90
2021/01/08 04:06:17;;;;;;;3.55;1.70;;;3.30;99.90;;;;;;5091894;28;20091;-92
2021/01/08 04:08:43;;;;;;;2.95;1.58;;;3.30;99.90;;;;;;5091377;28;20115;-92
2021/01/08 04:11:08;;;;;;;3.20;1.75;;;3.40;99.90;;;;;;5091252;28;20480;-92
2021/01/08 04:13:34;;;;;;;3.03;1.50;;;3.30;99.90;;;;;;5091044;28;20024;-92
2021/01/08 04:15:59;;;;;;;2.20;1.58;;;3.40;99.90;;;;;;5087340;28;20498;-90
2021/01/08 04:18:25;;;;;;;2.03;1.17;;;3.40;99.90;;;;;;5094005;28;20550;-91
2021/01/08 04:20:50;;;;;;;2.25;1.38;;;3.40;99.90;;;;;;5090591;28;20020;-92
2021/01/08 04:23:16;;;;;;;2.50;1.50;;;3.40;99.90;;;;;;5082256;28;20043;-91
2021/01/08 04:25:41;;;;;;;1.90;1.13;;;3.40;99.90;;;;;;5086119;28;20123;-91
2021/01/08 04:28:07;;;;;;;3.50;1.42;;;3.50;99.90;;;;;;5089322;28;20027;-90
2021/01/08 04:30:32;;;;;;;3.22;1.50;;;3.40;99.90;;;;;;5092469;28;20094;-90
2021/01/08 04:32:58;;;;;;;2.42;1.35;;;3.40;99.90;;;;;;5083226;28;20024;-92
2021/01/08 04:35:23;;;;;;;1.63;1.02;;;3.50;99.90;;;;;;5094009;28;20032;-91
2021/01/08 04:37:49;;;;;;;2.50;1.60;;;3.50;99.90;;;;;;5095061;28;20360;-91
2021/01/08 04:40:14;;;;;;;4.57;1.42;;;3.50;99.90;;;;;;5085363;28;20016;-92
2021/01/08 04:42:40;;;;;;;2.28;1.15;;;3.50;99.90;;;;;;5091254;28;20027;-92
2021/01/08 04:45:06;;;;;;;5.18;2.13;;;3.50;99.90;;;;;;5087062;28;20038;-92
2021/01/08 04:47:36;;;;;;;1.85;1.20;;;3.60;99.90;;;;;;5083844;28;20036;-91
2021/01/08 04:50:02;;;;;;;;;;;3.60;99.90;;;;;;5093130;28;20446;-91
2021/01/08 04:52:30;;;;;;;5.03;1.50;;;3.50;99.90;;;;;;5087520;28;19963;-90
2021/01/08 04:54:56;;;;;;;2.22;1.45;;;3.50;99.90;;;;;;5086158;28;20052;-91
2021/01/08 04:57:23;;;;;;;3.20;1.70;;;3.50;99.90;;;;;;5091103;28;20175;-91
2021/01/08 04:59:49;;;;;;;2.40;1.67;;;3.60;99.90;;;;;;5091070;28;20069;-92
2021/01/08 05:02:15;;;;;;;2.70;1.75;;;3.60;99.90;;;;;;5089855;28;20054;-91
2021/01/08 05:04:42;;;;;;;2.42;1.67;;;3.60;99.90;;;;;;5090095;28;20063;-91
2021/01/08 05:07:07;;;;;;;3.03;1.80;;;3.60;99.90;;;;;;5088569;28;20024;-92
2021/01/08 05:09:33;;;;;;;3.35;1.95;;;3.60;99.90;;;;;;5090118;28;20028;-92
2021/01/08 05:12:00;;;;;;;4.47;2.13;;;3.60;99.90;;;;;;5092762;28;20035;-92
2021/01/08 05:14:27;;;;;;;2.78;1.73;;;3.60;99.90;;;;;;5085999;28;20440;-92
2021/01/08 05:16:54;;;;;;;2.47;1.60;;;3.60;99.90;;;;;;5091476;28;20080;-91
2021/01/08 05:19:23;;;;;;;3.22;1.95;;;3.60;99.90;;;;;;5093682;28;20380;-92
2021/01/08 05:21:50;;;;;;;2.95;1.85;;;3.70;99.90;;;;;;5088782;28;20038;-92
2021/01/08 05:24:16;;;;;;;2.70;1.80;;;3.70;99.90;;;;;;5089781;28;20028;-92
2021/01/08 05:26:42;;;;;;;3.28;1.88;;;3.70;99.90;;;;;;5091342;28;20020;-92
2021/01/08 05:29:08;;;;;;;2.53;1.60;;;3.70;99.90;;;;;;5086820;28;20024;-92
2021/01/08 05:31:34;;;;;;;3.22;1.90;;;3.70;99.90;;;;;;5093845;28;20036;-92
2021/01/08 05:34:00;;;;;;;3.00;1.80;;;3.80;99.90;;;;;;5091742;28;20020;-91
2021/01/08 05:36:26;;;;;;;3.97;2.40;;;3.70;99.90;;;;;;5087296;28;20548;-93
2021/01/08 05:38:54;;;;;;;3.53;2.25;;;3.70;99.90;;;;;;5090847;28;20020;-91
2021/01/08 05:41:22;;;;;;;5.82;2.78;;;3.70;99.90;;;;;;5085520;28;20027;-92
2021/01/08 05:43:47;;;;;;;5.32;3.45;;;3.70;99.90;;;;;;5087328;28;20031;-92
2021/01/08 05:46:18;;;;;;;6.85;4.85;;;3.70;99.90;;;;;;5091890;28;20395;-91
2021/01/08 05:48:50;;;;;;;6.38;4.50;;;3.70;99.90;;;;;;5085952;28;20031;-92
2021/01/08 05:51:17;;;;;;;6.40;4.53;;;3.70;99.90;;;;;;5086843;28;20028;-93
2021/01/08 05:53:46;;;;;;;6.20;4.30;;;3.70;99.90;;;;;;5083055;28;20048;-92
2021/01/08 05:56:22;;;;;;;7.97;4.60;;;3.60;99.90;;;;;;5087970;28;20048;-90
2021/01/08 05:58:48;;;;;;;6.82;4.43;;;3.60;99.90;;;;;;5086807;28;20026;-92
2021/01/08 06:01:16;;;;;;;5.13;3.70;;;3.60;99.90;;;;;;5091351;28;20491;-91
2021/01/08 06:03:42;;;;;;;5.03;3.63;;;3.60;99.90;;;;;;5089150;28;20119;-91
2021/01/08 06:06:09;;;;;;;6.70;4.53;;;3.60;99.90;;;;;;5092589;28;20024;-92
2021/01/08 06:08:53;;;;;;;5.03;3.80;;;3.60;99.90;;;;;;5092808;28;20494;-91
2021/01/08 06:11:29;;;;;;;4.22;2.63;;;3.70;99.90;;;;;;5092184;28;20051;-92
2021/01/08 06:13:57;;;;;;;3.95;2.80;;;3.70;99.90;;;;;;5092811;28;20028;-92
2021/01/08 06:16:23;;;;;;;5.07;2.60;;;3.70;99.90;;;;;;5092819;28;20078;-92
2021/01/08 06:18:51;;;;;;;3.15;2.20;;;3.70;99.90;;;;;;5085567;28;20020;-92
2021/01/08 06:21:17;;;;;;;3.85;2.42;;;3.80;99.90;;;;;;5089840;28;20085;-92
2021/01/08 06:23:44;;;;;;;4.43;2.35;;;3.70;99.90;;;;;;5086752;28;20077;-92
2021/01/08 06:26:11;;;;;;;4.47;2.65;;;3.80;99.90;;;;;;5078263;28;20032;-92
2021/01/08 06:28:42;;;;;;;4.22;2.53;;;3.70;99.90;;;;;;5073568;28;20484;-92
2021/01/08 06:31:30;;;;;;;4.88;2.65;;;3.70;99.90;;;;;;5089114;28;20024;-92
2021/01/08 06:34:00;;;;;;;3.38;2.22;;;3.80;99.90;;;;;;5084645;28;20095;-92
2021/01/08 06:36:28;;;;;;;3.70;2.15;;;3.70;99.90;;;;;;5084336;28;20028;-92
2021/01/08 06:39:06;;;;;;;2.97;1.92;;;3.70;99.90;;;;;;5095152;28;20024;-91
2021/01/08 06:41:32;;;;;;;3.42;1.80;;;3.70;99.90;;;;;;5098050;28;20023;-90
2021/01/08 06:44:01;;;;;;;3.28;1.80;;;3.70;99.90;;;;;;5098242;28;20032;-91
2021/01/08 06:46:32;;;;;;;2.58;1.50;;;3.80;99.90;;;;;;5096873;28;20028;-92
2021/01/08 06:49:00;;;;;;;3.65;2.10;;;3.80;99.90;;;;;;5096669;28;20024;-90
2021/01/08 06:51:31;;;;;;;3.90;2.22;;;3.70;99.90;;;;;;5085475;28;20094;-90
2021/01/08 06:54:02;;;;;;;3.58;1.98;;;3.80;99.90;;;;;;5087216;28;20046;-90
2021/01/08 06:56:30;;;;;;;3.38;2.10;;;3.80;99.90;;;;;;5084545;28;20075;-91
2021/01/08 06:58:56;;;;;;;3.25;1.83;;;3.80;99.90;;;;;;5083090;28;20020;-93
2021/01/08 07:01:41;;;;;;;3.42;2.05;;;3.80;99.90;;;;;;5091002;28;20115;-91
2021/01/08 07:04:09;;;;;;;3.92;2.40;;;3.80;99.90;;;;;;5091612;28;20020;-92
2021/01/08 07:06:36;;;;;;;3.45;1.77;;;3.70;99.90;;;;;;5078934;28;20446;-92
2021/01/08 07:09:05;;;;;;;3.83;2.35;;;3.70;99.90;;;;;;5082802;28;20415;-91
2021/01/08 07:11:31;;;;;;;4.47;2.47;;;3.80;99.90;;;;;;5081816;28;20025;-91
2021/01/08 07:14:14;;;;;;;3.72;2.47;;;3.80;99.90;;;;;;5079057;28;20080;-92
2021/01/08 07:16:47;;;;;;;4.15;2.30;;;3.80;99.90;;;;;;5076171;28;20107;-91
2021/01/08 07:19:15;;;;;;;5.05;2.65;;;3.80;99.90;;;;;;5076033;28;20024;-91
2021/01/08 07:21:45;;;;;;;4.15;2.50;;;3.80;99.90;;;;;;5075811;28;20039;-93
2021/01/08 07:24:12;;;;;;;4.03;2.55;;;3.70;99.90;;;;;;5091798;28;20123;-91
2021/01/08 07:26:38;;;;;;;4.60;2.90;;;3.70;99.90;;;;;;5085573;28;20115;-91
2021/01/08 07:29:06;;;;;;;5.13;3.20;;;3.70;99.90;;;;;;5091300;28;20100;-92
2021/01/08 07:31:34;;;;;;;6.45;3.13;;;3.60;99.90;;;;;;5087451;28;20123;-91
2021/01/08 07:34:02;;;;;;;6.03;3.90;;;3.60;99.90;;;;;;5078750;28;20027;-91
2021/01/08 07:36:29;;;;;;;5.10;3.15;;;3.60;99.90;;;;;;5089724;28;20387;-91
2021/01/08 07:38:55;;;;;;;6.00;3.30;;;3.60;99.90;;;;;;5093656;28;20020;-90
2021/01/08 07:41:37;;;;;;;5.50;3.28;;;3.50;99.90;;;;;;5089732;28;20025;-91
2021/01/08 07:44:24;;;;;;;6.30;3.40;;;3.50;99.90;;;;;;5087568;28;20039;-91
2021/01/08 07:46:49;;;;;;;6.80;3.72;;;3.50;99.90;;;;;;5097605;28;20027;-90
2021/01/08 07:49:28;;;;;;;7.40;3.47;;;3.50;99.90;;;;;;5088567;28;20114;-91
2021/01/08 07:51:54;;;;;;;5.68;3.40;;;3.50;99.90;;;;;;5085337;28;20031;-91
2021/01/08 07:54:55;;;;;;;5.40;3.25;;;3.50;99.90;;;;;;5086334;28;20032;-92
2021/01/08 07:57:20;;;;;;;4.60;3.08;;;3.50;99.90;;;;;;5082798;28;20023;-91
2021/01/08 07:59:46;;;;;;;4.60;3.22;;;3.50;99.90;;;;;;5085595;28;20017;-91
2021/01/08 08:02:12;;;;;;;6.53;3.42;;;3.50;99.90;;;;;;5088061;28;20072;-91
2021/01/08 08:04:38;;;;;;;6.10;3.08;;;3.50;99.90;;;;;;5084430;28;20106;-91
2021/01/08 08:07:03;;;;;;;5.90;3.60;;;3.50;99.90;;;;;;5078847;28;20067;-91
2021/01/08 08:09:29;;;;;;;4.82;3.33;;;3.60;99.90;;;;;;5077866;28;20025;-92
2021/01/08 08:11:55;;;;;;;5.47;3.00;;;3.60;99.90;;;;;;5075123;28;20028;-91
2021/01/08 08:14:22;;;;;;;6.63;3.63;;;3.50;99.90;;;;;;5075010;28;20056;-87
2021/01/08 08:16:48;;;;;;;5.85;2.92;;;3.60;99.90;;;;;;5080282;28;20525;-89
2021/01/08 08:19:15;;;;;;;5.05;3.08;;;3.60;99.90;;;;;;5075382;28;20032;-89
2021/01/08 08:21:49;;;;;;;5.90;3.47;;;3.60;99.90;;;;;;5077089;28;20025;-88
2021/01/08 08:24:16;;;;;;;5.75;3.33;;;3.70;99.90;;;;;;5074555;28;20028;-88
2021/01/08 08:26:43;;;;;;;5.85;2.70;;;3.70;99.90;;;;;;5074751;28;20035;-88
2021/01/08 08:29:12;;;;;;;5.85;3.63;;;3.70;99.90;;;;;;5074708;28;20087;-89
2021/01/08 08:31:45;;;;;;;6.38;3.20;;;3.70;99.90;;;;;;5079885;28;20032;-89
2021/01/08 08:34:11;;;;;;;6.03;4.05;;;3.60;99.90;;;;;;5084972;28;20476;-89
2021/01/08 08:36:38;;;;;;;5.50;3.47;;;3.60;99.90;;;;;;5094614;28;20020;-89
2021/01/08 08:39:15;;;;;;;4.75;3.00;;;3.60;99.90;;;;;;5094599;28;20468;-89
2021/01/08 08:41:44;;;;;;;4.43;3.15;;;3.70;99.90;;;;;;5095105;28;20034;-88
2021/01/08 08:44:15;;;;;;;5.55;3.30;;;3.70;99.90;;;;;;5114878;28;20641;-88
2021/01/08 08:46:50;;;;;;;4.93;3.50;;;3.70;99.90;;;;;;5115064;28;20034;-88
2021/01/08 08:49:24;;;;;;;6.20;4.22;;;3.70;99.90;;;;;;5109109;28;20133;-88
2021/01/08 08:51:52;;;;;;;5.05;3.50;;;3.70;99.90;;;;;;5081833;28;20028;-88
2021/01/08 08:54:18;;;;;;;4.55;2.92;;;3.70;99.90;;;;;;5083564;28;20521;-89
2021/01/08 08:56:55;;;;;;;4.60;3.10;;;3.80;99.90;;;;;;5085498;28;20083;-89
2021/01/08 08:59:46;;;;;;;6.55;4.05;;;3.80;99.90;;;;;;5093654;28;20024;-89
2021/01/08 09:02:25;;;;;;;6.05;3.33;;;3.80;99.90;;;;;;5086929;28;20074;-89
2021/01/08 09:04:59;;;;;;;6.33;3.80;;;3.80;99.90;;;;;;5093279;28;20020;-88
2021/01/08 09:07:30;;;;;;;5.70;3.70;;;3.80;99.90;;;;;;5094024;28;20028;-88
2021/01/08 09:10:12;;;;;;;4.78;3.45;;;3.80;99.90;;;;;;5097350;28;20027;-89
2021/01/08 09:13:06;;;;;;;5.15;3.30;;;3.90;99.90;;;;;;5099565;28;20169;-89
2021/01/08 09:15:47;;;;;;;4.22;3.00;;;3.90;99.90;;;;;;5053144;28;20083;-88
2021/01/08 09:18:36;;;;;;;5.65;3.17;;;3.90;99.90;;;;;;5076920;28;20036;-89
2021/01/08 09:21:22;;;;;;;3.97;2.75;;;4.00;99.90;;;;;;5086782;28;20488;-88
2021/01/08 09:23:52;;;;;;;5.05;3.28;;;4.00;99.90;;;;;;5073772;28;20501;-89
2021/01/08 09:26:19;;;;;;;5.90;3.70;;;4.00;99.90;;;;;;5094159;28;20078;-90
2021/01/08 09:28:47;;;;;;;5.90;3.60;;;4.10;99.90;;;;;;5090145;28;20032;-89
2021/01/08 09:31:13;;;;;;;5.25;3.35;;;4.10;99.90;;;;;;5093538;28;20028;-88
2021/01/08 09:33:39;;;;;;;6.07;4.00;;;4.20;99.90;;;;;;5093300;28;20032;-89
2021/01/08 09:36:06;;;;;;;5.72;3.30;;;4.20;99.90;;;;;;5093459;28;20031;-90
2021/01/08 09:38:33;;;;;;;7.13;3.78;;;4.20;99.90;;;;;;5093606;28;20115;-90
2021/01/08 09:40:59;;;;;;;4.57;3.00;;;4.20;99.90;;;;;;5093299;28;20028;-89
2021/01/08 09:43:24;;;;;;;7.90;4.07;;;4.30;99.90;;;;;;5093527;28;20036;-89
2021/01/08 09:46:06;;;;;;;6.25;3.60;;;4.30;99.90;;;;;;5094411;28;20074;-88
2021/01/08 09:48:34;;;;;;;5.47;3.50;;;4.40;99.90;;;;;;5093512;28;20044;-89
2021/01/08 09:51:05;;;;;;;5.18;3.65;;;4.40;99.90;;;;;;5088827;28;20514;-89
2021/01/08 09:53:32;;;;;;;5.55;3.50;;;4.40;99.90;;;;;;5089457;28;20048;-90
2021/01/08 09:56:16;;;;;;;6.10;3.70;;;4.50;99.90;;;;;;5111521;28;20051;-87
2021/01/08 09:58:45;;;;;;;5.57;3.72;;;4.50;99.90;;;;;;5093942;28;20028;-88
2021/01/08 10:01:14;;;;;;;5.53;3.55;;;4.50;99.90;;;;;;5092788;28;20026;-88
2021/01/08 10:03:41;;;;;;;6.30;3.95;;;4.60;99.90;;;;;;5093669;28;20047;-88
2021/01/08 10:06:13;;;;;;;4.93;3.08;;;4.60;99.90;;;;;;5082389;28;20087;-87
2021/01/08 10:08:38;;;;;;;5.28;3.38;;;4.70;99.90;;;;;;5074815;28;20371;-88
2021/01/08 10:11:06;;;;;;;5.78;3.53;;;4.70;99.90;;;;;;5077627;28;20035;-88
2021/01/08 10:13:32;;;;;;;5.10;3.67;;;4.70;99.90;;;;;;5098461;28;20430;-87
2021/01/08 10:16:05;;;;;;;6.38;3.42;;;4.80;99.90;;;;;;5097456;28;20020;-87
2021/01/08 10:18:33;;;;;;;7.93;3.45;;;4.80;99.90;;;;;;5089983;28;20021;-87
2021/01/08 10:21:04;;;;;;;4.68;3.63;;;4.80;99.90;;;;;;5072373;28;20020;-87
2021/01/08 10:23:36;;;;;;;4.97;3.70;;;4.90;99.90;;;;;;5074316;28;20029;-87
2021/01/08 10:26:12;;;;;;;6.55;3.92;;;4.80;99.90;;;;;;5071954;28;20123;-86
2021/01/08 10:28:55;;;;;;;5.32;4.18;;;4.80;99.90;;;;;;5075759;28;20497;-87
2021/01/08 10:31:22;;;;;;;6.20;3.97;;;4.80;99.90;;;;;;5083084;28;20131;-87
2021/01/08 10:33:48;;;;;;;5.18;3.30;;;4.80;99.90;;;;;;5077263;28;20055;-87
2021/01/08 10:36:14;;;;;;;4.78;3.22;;;4.80;99.90;;;;;;5092157;28;20052;-90
2021/01/08 10:38:41;;;;;;;5.82;3.22;;;4.80;99.90;;;;;;5092473;28;20050;-88
2021/01/08 10:41:06;;;;;;;6.47;3.53;;;4.80;99.90;;;;;;5089239;28;20100;-88
2021/01/08 10:43:35;;;;;;;7.32;4.63;;;4.80;99.90;;;;;;5080842;28;20128;-88
2021/01/08 10:46:04;;;;;;;5.57;4.05;;;4.90;99.90;;;;;;5081903;28;20036;-87
2021/01/08 10:48:30;;;;;;;7.95;4.32;;;4.80;99.90;;;;;;5088795;28;20028;-88
2021/01/08 10:50:57;;;;;;;4.57;3.08;;;4.80;99.90;;;;;;5112404;28;20027;-88
2021/01/08 10:53:22;;;;;;;5.70;3.60;;;4.80;99.90;;;;;;5096080;28;20055;-87
2021/01/08 10:55:48;;;;;;;5.15;3.53;;;4.80;99.90;;;;;;5081079;28;20016;-88
2021/01/08 10:58:15;;;;;;;5.82;4.18;;;4.80;99.90;;;;;;5083004;28;20017;-87
2021/01/08 11:00:42;;;;;;;6.00;3.85;;;4.80;99.90;;;;;;5080939;28;20020;-87
2021/01/08 11:03:08;;;;;;;4.28;2.95;;;4.80;99.90;;;;;;5080012;28;20028;-88
2021/01/08 11:05:37;;;;;;;5.13;3.83;;;4.80;99.90;;;;;;5080911;28;20519;-87
2021/01/08 11:08:03;;;;;;;5.30;3.47;;;4.80;99.90;;;;;;5074303;28;20055;-88
2021/01/08 11:10:31;;;;;;;4.45;3.08;;;4.80;99.90;;;;;;5079779;28;20032;-87
2021/01/08 11:12:57;;;;;;;4.15;2.75;;;4.80;99.90;;;;;;5088316;28;20498;-87
2021/01/08 11:15:22;;;;;;;4.70;2.70;;;4.80;99.90;;;;;;5086407;28;20028;-87
2021/01/08 11:17:48;;;;;;;3.75;2.35;;;4.80;99.90;;;;;;5087564;28;20021;-88
2021/01/08 11:20:14;;;;;;;4.53;2.85;;;4.80;99.90;;;;;;5077872;28;20008;-88
2021/01/08 11:22:40;;;;;;;3.58;2.15;;;4.80;99.90;;;;;;5082119;28;20025;-88
2021/01/08 11:25:06;;;;;;;3.50;2.17;;;4.80;99.90;;;;;;5080903;28;20021;-87
2021/01/08 11:27:32;;;;;;;4.22;2.75;;;4.80;99.90;;;;;;5084792;28;20028;-87
2021/01/08 11:29:57;;;;;;;3.55;2.33;;;4.80;99.90;;;;;;5091093;28;20020;-87
2021/01/08 11:32:23;;;;;;;3.65;2.15;;;4.90;99.90;;;;;;5095708;28;20494;-88
2021/01/08 11:34:48;;;;;;;4.05;2.65;;;4.90;99.90;;;;;;5092275;28;20063;-87
2021/01/08 11:37:14;;;;;;;2.95;1.95;;;4.90;99.90;;;;;;5088510;28;20008;-87
2021/01/08 11:39:39;;;;;;;2.53;1.83;;;4.90;99.90;;;;;;5083954;28;20447;-86
2021/01/08 11:42:05;;;;;;;3.90;2.60;;;4.90;99.90;;;;;;5089596;28;20020;-86
2021/01/08 11:44:31;;;;;;;3.08;2.03;;;4.80;99.90;;;;;;5087666;28;20036;-87
2021/01/08 11:46:57;;;;;;;2.50;1.80;;;4.80;99.90;;;;;;5081315;28;20021;-87
2021/01/08 11:49:22;;;;;;;3.17;2.22;;;4.80;99.90;;;;;;5082043;28;20043;-87
2021/01/08 11:51:48;;;;;;;2.67;1.75;;;4.80;99.90;;;;;;5094937;28;20411;-87
2021/01/08 11:54:13;;;;;;;2.45;1.63;;;4.90;99.90;;;;;;5082937;28;20053;-87
2021/01/08 11:56:39;;;;;;;2.85;1.88;;;4.90;99.90;;;;;;5047867;28;20063;-87
2021/01/08 11:59:05;;;;;;;2.58;1.60;;;4.90;99.90;;;;;;5043444;28;20074;-87
2021/01/08 12:01:31;;;;;;;2.22;1.40;;;4.90;99.90;;;;;;5047517;28;20028;-87
2021/01/08 12:03:58;;;;;;;2.58;1.60;;;5.00;99.90;;;;;;5046778;28;20040;-86
2021/01/08 12:06:28;;;;;;;2.85;1.58;;;5.00;99.90;;;;;;5064586;28;20021;-87
2021/01/08 12:08:55;;;;;;;2.63;1.60;;;5.00;99.90;;;;;;5045191;28;20035;-87
2021/01/08 12:11:24;;;;;;;1.98;1.40;;;5.00;99.90;;;;;;5048087;28;20044;-87
2021/01/08 12:13:50;;;;;;;2.38;1.63;;;5.00;99.90;;;;;;5047659;28;20120;-87
2021/01/08 12:16:23;;;;;;;2.45;1.70;;;5.00;99.90;;;;;;5045499;28;20024;-87
2021/01/08 12:18:49;;;;;;;2.88;1.77;;;5.00;99.90;;;;;;5050440;28;20138;-87
2021/01/08 12:21:14;;;;;;;2.78;2.15;;;5.10;99.90;;;;;;5070356;28;20062;-87
2021/01/08 12:23:40;;;;;;;2.63;1.83;;;5.00;99.90;;;;;;5049797;28;20096;-87
2021/01/08 12:26:12;;;;;;;7.05;3.03;;;5.00;99.90;;;;;;5054277;28;20047;-86
2021/01/08 12:28:38;;;;;;;3.67;2.08;;;5.00;99.90;;;;;;5047624;28;20067;-86
2021/01/08 12:31:03;;;;;;;2.97;2.05;;;4.90;99.90;;;;;;5039478;28;20049;-86
2021/01/08 12:33:29;;;;;;;3.40;2.10;;;5.00;99.90;;;;;;5042691;28;20059;-87
2021/01/08 12:35:55;;;;;;;3.33;2.15;;;5.00;99.90;;;;;;5047424;28;20020;-85
2021/01/08 12:38:20;;;;;;;3.67;2.55;;;5.00;99.90;;;;;;5046116;28;20361;-86
2021/01/08 12:40:46;;;;;;;4.80;2.55;;;5.00;99.90;;;;;;5046873;28;20070;-86
2021/01/08 12:43:11;;;;;;;4.40;2.33;;;4.90;99.90;;;;;;5045221;28;20025;-86
2021/01/08 12:45:37;;;;;;;4.07;2.88;;;4.90;99.90;;;;;;5048667;28;20151;-86
2021/01/08 12:48:05;;;;;;;2.63;1.80;;;4.80;99.90;;;;;;5049432;28;20383;-87
2021/01/08 12:50:30;;;;;;;3.00;1.92;;;4.80;99.90;;;;;;5041576;28;20123;-87
2021/01/08 12:52:56;;;;;;;3.20;1.95;;;4.80;99.90;;;;;;5045957;28;20057;-87
2021/01/08 12:55:22;;;;;;;3.00;1.73;;;4.80;99.90;;;;;;5045487;28;20029;-86
2021/01/08 12:57:47;;;;;;;2.78;1.63;;;4.90;99.90;;;;;;5053863;28;20024;-86
2021/01/08 13:00:14;;;;;;;2.83;1.77;;;4.90;99.90;;;;;;5045839;28;20029;-87
2021/01/08 13:02:40;;;;;;;2.25;1.60;;;4.90;99.90;;;;;;5065320;28;20020;-87